sensor_id;sensor_type;location;lat;lon;timestamp;pressure;altitude;pressure_sealevel;temperature;humidity
76434;BME280;65265;53.200;6.080;2024-02-26T00:03:09;100272.81;;;2.80;100.00
76434;BME280;65265;53.200;6.080;2024-02-26T00:08:01;100268.81;;;2.84;100.00
76434;BME280;65265;53.200;6.080;2024-02-26T00:12:56;100272.31;;;2.86;100.00
76434;BME280;65265;53.200;6.080;2024-02-26T00:17:48;100267.59;;;2.92;100.00
76434;BME280;65265;53.200;6.080;2024-02-26T00:22:41;100267.72;;;2.93;100.00
76434;BME280;65265;53.200;6.080;2024-02-26T00:27:34;100266.31;;;2.98;100.00
76434;BME280;65265;53.200;6.080;2024-02-26T00:32:29;100264.16;;;3.04;100.00
76434;BME280;65265;53.200;6.080;2024-02-26T00:37:22;100275.13;;;3.05;100.00
76434;BME280;65265;53.200;6.080;2024-02-26T00:42:14;100277.06;;;3.09;100.00
76434;BME280;65265;53.200;6.080;2024-02-26T00:47:07;100274.28;;;3.04;100.00
76434;BME280;65265;53.200;6.080;2024-02-26T00:52:01;100277.25;;;3.12;100.00
76434;BME280;65265;53.200;6.080;2024-02-26T00:56:55;100280.88;;;3.02;100.00
76434;BME280;65265;53.200;6.080;2024-02-26T01:01:48;100272.94;;;2.96;100.00
76434;BME280;65265;53.200;6.080;2024-02-26T01:06:40;100292.06;;;3.06;100.00
76434;BME280;65265;53.200;6.080;2024-02-26T01:11:36;100263.94;;;2.87;100.00
76434;BME280;65265;53.200;6.080;2024-02-26T01:16:28;100293.78;;;3.07;100.00
76434;BME280;65265;53.200;6.080;2024-02-26T01:21:21;100306.00;;;3.14;100.00
76434;BME280;65265;53.200;6.080;2024-02-26T01:26:13;100296.03;;;3.02;100.00
76434;BME280;65265;53.200;6.080;2024-02-26T01:31:09;100295.75;;;2.98;100.00
76434;BME280;65265;53.200;6.080;2024-02-26T01:36:01;100290.44;;;2.93;100.00
76434;BME280;65265;53.200;6.080;2024-02-26T01:40:54;100309.19;;;2.97;100.00
76434;BME280;65265;53.200;6.080;2024-02-26T01:45:46;100303.75;;;2.91;100.00
76434;BME280;65265;53.200;6.080;2024-02-26T01:50:41;100316.69;;;2.82;100.00
76434;BME280;65265;53.200;6.080;2024-02-26T01:55:33;100327.47;;;2.80;100.00
76434;BME280;65265;53.200;6.080;2024-02-26T02:00:27;100328.22;;;2.92;100.00
76434;BME280;65265;53.200;6.080;2024-02-26T02:05:20;100329.41;;;2.84;100.00
76434;BME280;65265;53.200;6.080;2024-02-26T02:10:15;100311.53;;;2.81;100.00
76434;BME280;65265;53.200;6.080;2024-02-26T02:15:09;100325.31;;;2.86;100.00
76434;BME280;65265;53.200;6.080;2024-02-26T02:20:02;100321.59;;;2.94;100.00
76434;BME280;65265;53.200;6.080;2024-02-26T02:24:57;100321.59;;;2.94;100.00
76434;BME280;65265;53.200;6.080;2024-02-26T02:29:51;100334.81;;;2.90;100.00
76434;BME280;65265;53.200;6.080;2024-02-26T02:34:45;100328.22;;;2.92;100.00
76434;BME280;65265;53.200;6.080;2024-02-26T02:39:37;100330.28;;;2.84;100.00
76434;BME280;65265;53.200;6.080;2024-02-26T02:44:32;100338.81;;;2.86;100.00
76434;BME280;65265;53.200;6.080;2024-02-26T02:49:24;100341.03;;;2.82;100.00
76434;BME280;65265;53.200;6.080;2024-02-26T02:54:18;100354.28;;;2.78;100.00
76434;BME280;65265;53.200;6.080;2024-02-26T02:59:10;100348.16;;;2.74;100.00
76434;BME280;65265;53.200;6.080;2024-02-26T03:04:05;100359.72;;;2.84;100.00
76434;BME280;65265;53.200;6.080;2024-02-26T03:08:57;100360.56;;;2.84;100.00
76434;BME280;65265;53.200;6.080;2024-02-26T03:13:51;100357.75;;;2.80;100.00
76434;BME280;65265;53.200;6.080;2024-02-26T03:18:43;100347.19;;;2.72;100.00
76434;BME280;65265;53.200;6.080;2024-02-26T03:23:38;100372.41;;;2.85;100.00
76434;BME280;65265;53.200;6.080;2024-02-26T03:28:30;100383.09;;;2.94;100.00
76434;BME280;65265;53.200;6.080;2024-02-26T03:33:24;100395.81;;;2.96;100.00
76434;BME280;65265;53.200;6.080;2024-02-26T03:38:16;100405.91;;;2.96;100.00
76434;BME280;65265;53.200;6.080;2024-02-26T03:43:10;100409.97;;;2.94;100.00
76434;BME280;65265;53.200;6.080;2024-02-26T03:48:03;100400.97;;;2.84;100.00
76434;BME280;65265;53.200;6.080;2024-02-26T03:52:56;100413.78;;;3.00;100.00
76434;BME280;65265;53.200;6.080;2024-02-26T03:57:49;100421.44;;;3.02;100.00
76434;BME280;65265;53.200;6.080;2024-02-26T04:02:44;100429.97;;;3.04;100.00
76434;BME280;65265;53.200;6.080;2024-02-26T04:07:36;100412.91;;;3.00;100.00
76434;BME280;65265;53.200;6.080;2024-02-26T04:12:29;100428.97;;;3.15;100.00
76434;BME280;65265;53.200;6.080;2024-02-26T04:17:24;100441.72;;;3.16;100.00
76434;BME280;65265;53.200;6.080;2024-02-26T04:22:18;100442.50;;;3.15;100.00
76434;BME280;65265;53.200;6.080;2024-02-26T04:27:11;100433.19;;;3.14;100.00
76434;BME280;65265;53.200;6.080;2024-02-26T04:32:04;100443.47;;;3.17;100.00
76434;BME280;65265;53.200;6.080;2024-02-26T04:36:56;100455.88;;;3.27;100.00
76434;BME280;65265;53.200;6.080;2024-02-26T04:41:51;100465.31;;;3.30;100.00
76434;BME280;65265;53.200;6.080;2024-02-26T04:46:45;100461.50;;;3.36;100.00
76434;BME280;65265;53.200;6.080;2024-02-26T04:51:38;100467.53;;;3.38;100.00
76434;BME280;65265;53.200;6.080;2024-02-26T04:56:30;100460.84;;;3.39;100.00
76434;BME280;65265;53.200;6.080;2024-02-26T05:01:25;100469.06;;;3.49;100.00
76434;BME280;65265;53.200;6.080;2024-02-26T05:06:18;100476.66;;;3.49;100.00
76434;BME280;65265;53.200;6.080;2024-02-26T05:11:11;100483.72;;;3.55;100.00
76434;BME280;65265;53.200;6.080;2024-02-26T05:16:04;100487.41;;;3.60;100.00
76434;BME280;65265;53.200;6.080;2024-02-26T05:20:58;100482.44;;;3.61;100.00
76434;BME280;65265;53.200;6.080;2024-02-26T05:25:51;100498.25;;;3.72;100.00
76434;BME280;65265;53.200;6.080;2024-02-26T05:30:43;100506.53;;;3.69;100.00
76434;BME280;65265;53.200;6.080;2024-02-26T05:35:35;100509.34;;;3.61;100.00
76434;BME280;65265;53.200;6.080;2024-02-26T05:40:29;100516.38;;;3.65;100.00
76434;BME280;65265;53.200;6.080;2024-02-26T05:45:22;100516.75;;;3.58;100.00
76434;BME280;65265;53.200;6.080;2024-02-26T05:50:14;100523.50;;;3.57;100.00
76434;BME280;65265;53.200;6.080;2024-02-26T05:55:08;100527.16;;;3.62;100.00
76434;BME280;65265;53.200;6.080;2024-02-26T06:00:04;100541.38;;;3.60;100.00
76434;BME280;65265;53.200;6.080;2024-02-26T06:04:56;100544.00;;;3.62;100.00
76434;BME280;65265;53.200;6.080;2024-02-26T06:09:49;100540.97;;;3.54;100.00
76434;BME280;65265;53.200;6.080;2024-02-26T06:14:41;100549.34;;;3.53;100.00
76434;BME280;65265;53.200;6.080;2024-02-26T06:19:37;100567.25;;;3.56;100.00
76434;BME280;65265;53.200;6.080;2024-02-26T06:24:29;100572.56;;;3.61;100.00
76434;BME280;65265;53.200;6.080;2024-02-26T06:29:21;100572.00;;;3.65;100.00
76434;BME280;65265;53.200;6.080;2024-02-26T06:34:15;100587.63;;;3.72;100.00
76434;BME280;65265;53.200;6.080;2024-02-26T06:39:09;100582.41;;;3.69;100.00
76434;BME280;65265;53.200;6.080;2024-02-26T06:44:05;100589.50;;;3.75;100.00
76434;BME280;65265;53.200;6.080;2024-02-26T06:48:58;100585.09;;;3.72;100.00
76434;BME280;65265;53.200;6.080;2024-02-26T06:53:51;100594.06;;;3.80;100.00
76434;BME280;65265;53.200;6.080;2024-02-26T06:58:47;100600.19;;;3.84;100.00
76434;BME280;65265;53.200;6.080;2024-02-26T07:03:40;100586.53;;;3.82;100.00
76434;BME280;65265;53.200;6.080;2024-02-26T07:08:33;100601.25;;;3.74;100.00
76434;BME280;65265;53.200;6.080;2024-02-26T07:13:25;100601.44;;;3.77;100.00
76434;BME280;65265;53.200;6.080;2024-02-26T07:18:23;100611.53;;;3.77;100.00
76434;BME280;65265;53.200;6.080;2024-02-26T07:23:15;100624.09;;;3.76;100.00
76434;BME280;65265;53.200;6.080;2024-02-26T07:28:08;100634.22;;;3.76;100.00
76434;BME280;65265;53.200;6.080;2024-02-26T07:33:00;100638.31;;;3.74;100.00
76434;BME280;65265;53.200;6.080;2024-02-26T07:37:55;100616.81;;;3.54;100.00
76434;BME280;65265;53.200;6.080;2024-02-26T07:42:47;100657.78;;;3.75;100.00
76434;BME280;65265;53.200;6.080;2024-02-26T07:47:40;100665.53;;;3.78;100.00
76434;BME280;65265;53.200;6.080;2024-02-26T07:52:34;100659.69;;;3.79;100.00
76434;BME280;65265;53.200;6.080;2024-02-26T07:57:27;100660.66;;;3.81;100.00
76434;BME280;65265;53.200;6.080;2024-02-26T08:02:20;100666.00;;;3.85;100.00
76434;BME280;65265;53.200;6.080;2024-02-26T08:07:13;100652.09;;;3.79;100.00
76434;BME280;65265;53.200;6.080;2024-02-26T08:12:06;100674.69;;;3.89;100.00
76434;BME280;65265;53.200;6.080;2024-02-26T08:17:01;100650.53;;;3.81;100.00
76434;BME280;65265;53.200;6.080;2024-02-26T08:21:54;100673.69;;;4.00;100.00
76434;BME280;65265;53.200;6.080;2024-02-26T08:26:46;100679.16;;;4.06;100.00
76434;BME280;65265;53.200;6.080;2024-02-26T08:31:39;100653.94;;;3.94;100.00
76434;BME280;65265;53.200;6.080;2024-02-26T08:36:35;100680.19;;;4.09;100.00
76434;BME280;65265;53.200;6.080;2024-02-26T08:41:27;100691.06;;;4.21;100.00
76434;BME280;65265;53.200;6.080;2024-02-26T08:46:19;100708.03;;;4.22;100.00
76434;BME280;65265;53.200;6.080;2024-02-26T08:51:13;100714.91;;;4.25;100.00
76434;BME280;65265;53.200;6.080;2024-02-26T08:56:08;100727.97;;;4.31;100.00
76434;BME280;65265;53.200;6.080;2024-02-26T09:01:01;100725.50;;;4.32;100.00
76434;BME280;65265;53.200;6.080;2024-02-26T09:05:54;100729.50;;;4.42;100.00
76434;BME280;65265;53.200;6.080;2024-02-26T09:10:47;100733.94;;;4.46;100.00
76434;BME280;65265;53.200;6.080;2024-02-26T09:15:42;100737.06;;;4.55;100.00
76434;BME280;65265;53.200;6.080;2024-02-26T09:20:36;100732.84;;;4.55;100.00
76434;BME280;65265;53.200;6.080;2024-02-26T09:25:29;100739.38;;;4.64;100.00
76434;BME280;65265;53.200;6.080;2024-02-26T09:30:21;100745.28;;;4.65;100.00
76434;BME280;65265;53.200;6.080;2024-02-26T09:35:16;100708.47;;;4.43;100.00
76434;BME280;65265;53.200;6.080;2024-02-26T09:40:10;100735.03;;;4.49;100.00
76434;BME280;65265;53.200;6.080;2024-02-26T09:45:06;100758.25;;;4.69;100.00
76434;BME280;65265;53.200;6.080;2024-02-26T09:50:04;100769.03;;;4.80;100.00
76434;BME280;65265;53.200;6.080;2024-02-26T09:55:01;100780.03;;;4.80;100.00
76434;BME280;65265;53.200;6.080;2024-02-26T09:59:57;100787.59;;;4.93;100.00
76434;BME280;65265;53.200;6.080;2024-02-26T10:04:52;100803.78;;;4.95;100.00
76434;BME280;65265;53.200;6.080;2024-02-26T10:09:47;100806.31;;;4.95;100.00
76434;BME280;65265;53.200;6.080;2024-02-26T10:14:42;100793.16;;;4.88;100.00
76434;BME280;65265;53.200;6.080;2024-02-26T10:19:34;100817.31;;;4.96;100.00
76434;BME280;65265;53.200;6.080;2024-02-26T10:24:28;100822.47;;;4.97;100.00
76434;BME280;65265;53.200;6.080;2024-02-26T10:29:21;100827.38;;;4.94;100.00
76434;BME280;65265;53.200;6.080;2024-02-26T10:34:18;100839.34;;;4.97;100.00
76434;BME280;65265;53.200;6.080;2024-02-26T10:39:12;100833.19;;;4.93;100.00
76434;BME280;65265;53.200;6.080;2024-02-26T10:44:05;100848.78;;;4.99;100.00
76434;BME280;65265;53.200;6.080;2024-02-26T10:48:58;100872.06;;;5.07;100.00
76434;BME280;65265;53.200;6.080;2024-02-26T10:53:56;100862.06;;;4.95;100.00
76434;BME280;65265;53.200;6.080;2024-02-26T10:58:49;100877.28;;;4.95;100.00
76434;BME280;65265;53.200;6.080;2024-02-26T11:03:43;100845.41;;;4.86;100.00
76434;BME280;65265;53.200;6.080;2024-02-26T11:08:35;100869.16;;;5.01;100.00
76434;BME280;65265;53.200;6.080;2024-02-26T11:13:32;100891.56;;;5.08;100.00
76434;BME280;65265;53.200;6.080;2024-02-26T11:18:30;100893.75;;;5.16;100.00
76434;BME280;65265;53.200;6.080;2024-02-26T11:23:24;100912.88;;;5.24;100.00
76434;BME280;65265;53.200;6.080;2024-02-26T11:28:18;100902.75;;;5.11;100.00
76434;BME280;65265;53.200;6.080;2024-02-26T11:33:13;100912.88;;;5.24;100.00
76434;BME280;65265;53.200;6.080;2024-02-26T11:38:06;100929.94;;;5.27;100.00
76434;BME280;65265;53.200;6.080;2024-02-26T11:42:59;100938.22;;;5.24;100.00
76434;BME280;65265;53.200;6.080;2024-02-26T11:47:56;100931.19;;;5.33;100.00
76434;BME280;65265;53.200;6.080;2024-02-26T11:53:24;100928.03;;;5.37;100.00
76434;BME280;65265;53.200;6.080;2024-02-26T11:58:16;100941.72;;;5.39;100.00
76434;BME280;65265;53.200;6.080;2024-02-26T12:03:09;100947.34;;;5.35;100.00
76434;BME280;65265;53.200;6.080;2024-02-26T12:08:04;100927.06;;;5.35;100.00
76434;BME280;65265;53.200;6.080;2024-02-26T12:13:05;100931.28;;;5.35;100.00
76434;BME280;65265;53.200;6.080;2024-02-26T12:18:01;100939.34;;;5.42;100.00
76434;BME280;65265;53.200;6.080;2024-02-26T12:22:54;100927.06;;;5.35;100.00
76434;BME280;65265;53.200;6.080;2024-02-26T12:27:48;100943.47;;;5.27;100.00
76434;BME280;65265;53.200;6.080;2024-02-26T12:32:42;100948.19;;;5.21;100.00
76434;BME280;65265;53.200;6.080;2024-02-26T12:37:35;100964.47;;;5.25;100.00
76434;BME280;65265;53.200;6.080;2024-02-26T12:42:29;100956.84;;;5.25;100.00
76434;BME280;65265;53.200;6.080;2024-02-26T12:47:22;100956.13;;;5.27;100.00
76434;BME280;65265;53.200;6.080;2024-02-26T12:52:18;100967.06;;;5.26;100.00
76434;BME280;65265;53.200;6.080;2024-02-26T12:57:12;100977.03;;;5.23;100.00
76434;BME280;65265;53.200;6.080;2024-02-26T13:02:06;100986.88;;;5.19;100.00
76434;BME280;65265;53.200;6.080;2024-02-26T13:06:58;100985.91;;;5.17;100.00
76434;BME280;65265;53.200;6.080;2024-02-26T13:11:55;100988.34;;;5.15;100.00
76434;BME280;65265;53.200;6.080;2024-02-26T13:16:54;100998.88;;;5.21;100.00
76434;BME280;65265;53.200;6.080;2024-02-26T13:21:47;101010.78;;;5.09;100.00
76434;BME280;65265;53.200;6.080;2024-02-26T13:26:39;100964.19;;;4.81;100.00
76434;BME280;65265;53.200;6.080;2024-02-26T13:31:38;101021.88;;;5.11;100.00
76434;BME280;65265;53.200;6.080;2024-02-26T13:36:31;101031.84;;;5.08;100.00
76434;BME280;65265;53.200;6.080;2024-02-26T13:41:23;101042.53;;;5.04;100.00
76434;BME280;65265;53.200;6.080;2024-02-26T13:46:16;101028.53;;;4.96;100.00
76434;BME280;65265;53.200;6.080;2024-02-26T13:51:13;101041.38;;;4.99;100.00
76434;BME280;65265;53.200;6.080;2024-02-26T13:56:05;101053.28;;;5.00;100.00
76434;BME280;65265;53.200;6.080;2024-02-26T14:00:59;101047.34;;;5.13;100.00
76434;BME280;65265;53.200;6.080;2024-02-26T14:05:54;101049.47;;;5.07;100.00
76434;BME280;65265;53.200;6.080;2024-02-26T14:10:49;101059.22;;;5.01;100.00
76434;BME280;65265;53.200;6.080;2024-02-26T14:15:42;101029.06;;;4.79;100.00
76434;BME280;65265;53.200;6.080;2024-02-26T14:20:35;101072.09;;;5.04;100.00
76434;BME280;65265;53.200;6.080;2024-02-26T14:25:27;101073.06;;;5.06;100.00
76434;BME280;65265;53.200;6.080;2024-02-26T14:30:22;101081.75;;;5.09;100.00
76434;BME280;65265;53.200;6.080;2024-02-26T14:35:14;101074.34;;;5.12;100.00
76434;BME280;65265;53.200;6.080;2024-02-26T14:40:08;101085.63;;;5.04;100.00
76434;BME280;65265;53.200;6.080;2024-02-26T14:45:01;101084.09;;;5.06;100.00
76434;BME280;65265;53.200;6.080;2024-02-26T14:49:58;101090.44;;;5.13;100.00
76434;BME280;65265;53.200;6.080;2024-02-26T14:54:51;101090.91;;;5.07;100.00
76434;BME280;65265;53.200;6.080;2024-02-26T14:59:44;101088.38;;;5.07;100.00
76434;BME280;65265;53.200;6.080;2024-02-26T15:04:37;101090.50;;;5.01;100.00
76434;BME280;65265;53.200;6.080;2024-02-26T15:09:31;101087.47;;;4.94;100.00
76434;BME280;65265;53.200;6.080;2024-02-26T15:14:23;101112.34;;;4.99;100.00
76434;BME280;65265;53.200;6.080;2024-02-26T15:19:15;101122.47;;;4.99;100.00
76434;BME280;65265;53.200;6.080;2024-02-26T15:24:08;101121.09;;;5.04;100.00
76434;BME280;65265;53.200;6.080;2024-02-26T15:29:04;101122.78;;;5.04;100.00
76434;BME280;65265;53.200;6.080;2024-02-26T15:33:56;101118.97;;;4.97;100.00
76434;BME280;65265;53.200;6.080;2024-02-26T15:38:49;101145.00;;;5.08;100.00
76434;BME280;65265;53.200;6.080;2024-02-26T15:43:41;101154.28;;;5.07;100.00
76434;BME280;65265;53.200;6.080;2024-02-26T15:48:36;101126.53;;;4.84;100.00
76434;BME280;65265;53.200;6.080;2024-02-26T15:53:28;101169.06;;;5.01;100.00
76434;BME280;65265;53.200;6.080;2024-02-26T15:58:22;101177.44;;;5.00;100.00
76434;BME280;65265;53.200;6.080;2024-02-26T16:03:15;101179.22;;;5.01;100.00
76434;BME280;65265;53.200;6.080;2024-02-26T16:08:17;101185.88;;;4.88;100.00
76434;BME280;65265;53.200;6.080;2024-02-26T16:13:12;101191.84;;;4.88;100.00
76434;BME280;65265;53.200;6.080;2024-02-26T16:18:05;101196.78;;;4.87;100.00
76434;BME280;65265;53.200;6.080;2024-02-26T16:22:57;101193.66;;;4.78;100.00
76434;BME280;65265;53.200;6.080;2024-02-26T16:27:57;101217.44;;;4.80;100.00
76434;BME280;65265;53.200;6.080;2024-02-26T16:32:50;101223.06;;;4.76;100.00
76434;BME280;65265;53.200;6.080;2024-02-26T16:37:44;101238.06;;;4.73;100.00
76434;BME280;65265;53.200;6.080;2024-02-26T16:42:36;101240.47;;;4.71;100.00
76434;BME280;65265;53.200;6.080;2024-02-26T16:47:30;101258.97;;;4.70;100.00
76434;BME280;65265;53.200;6.080;2024-02-26T16:52:22;101250.09;;;4.64;100.00
76434;BME280;65265;53.200;6.080;2024-02-26T16:57:15;101253.50;;;4.64;100.00
76434;BME280;65265;53.200;6.080;2024-02-26T17:02:07;101261.00;;;4.63;100.00
76434;BME280;65265;53.200;6.080;2024-02-26T17:07:04;101270.25;;;4.63;100.00
76434;BME280;65265;53.200;6.080;2024-02-26T17:11:58;101280.47;;;4.64;100.00
76434;BME280;65265;53.200;6.080;2024-02-26T17:16:50;101291.19;;;4.60;100.00
76434;BME280;65265;53.200;6.080;2024-02-26T17:21:42;101302.75;;;4.57;100.00
76434;BME280;65265;53.200;6.080;2024-02-26T17:26:37;101303.31;;;4.53;100.00
76434;BME280;65265;53.200;6.080;2024-02-26T17:31:31;101314.44;;;4.55;100.00
76434;BME280;65265;53.200;6.080;2024-02-26T17:36:25;101281.78;;;4.23;100.00
76434;BME280;65265;53.200;6.080;2024-02-26T17:41:17;101331.50;;;4.46;100.00
76434;BME280;65265;53.200;6.080;2024-02-26T17:46:12;101328.84;;;4.44;100.00
76434;BME280;65265;53.200;6.080;2024-02-26T17:51:04;101324.00;;;4.36;100.00
76434;BME280;65265;53.200;6.080;2024-02-26T17:55:57;101344.47;;;4.39;100.00
76434;BME280;65265;53.200;6.080;2024-02-26T18:00:52;101368.03;;;4.38;100.00
76434;BME280;65265;53.200;6.080;2024-02-26T18:05:47;101372.69;;;4.32;100.00
76434;BME280;65265;53.200;6.080;2024-02-26T18:10:40;101380.59;;;4.25;100.00
76434;BME280;65265;53.200;6.080;2024-02-26T18:15:33;101383.03;;;4.23;100.00
76434;BME280;65265;53.200;6.080;2024-02-26T18:20:25;101383.69;;;4.21;100.00
76434;BME280;65265;53.200;6.080;2024-02-26T18:25:20;101401.41;;;4.21;100.00
76434;BME280;65265;53.200;6.080;2024-02-26T18:30:15;101410.53;;;4.19;100.00
76434;BME280;65265;53.200;6.080;2024-02-26T18:35:10;101422.50;;;4.21;100.00
76434;BME280;65265;53.200;6.080;2024-02-26T18:40:04;101435.06;;;4.20;100.00
76434;BME280;65265;53.200;6.080;2024-02-26T18:45:01;101434.53;;;4.24;100.00
76434;BME280;65265;53.200;6.080;2024-02-26T18:49:54;101439.50;;;4.22;100.00
76434;BME280;65265;53.200;6.080;2024-02-26T18:54:48;101466.56;;;4.23;100.00
76434;BME280;65265;53.200;6.080;2024-02-26T18:59:41;101473.13;;;4.21;100.00
76434;BME280;65265;53.200;6.080;2024-02-26T19:04:36;101491.19;;;4.26;100.00
76434;BME280;65265;53.200;6.080;2024-02-26T19:09:29;101501.09;;;4.23;100.00
76434;BME280;65265;53.200;6.080;2024-02-26T19:14:22;101496.34;;;4.16;100.00
76434;BME280;65265;53.200;6.080;2024-02-26T19:19:15;101499.41;;;4.12;100.00
76434;BME280;65265;53.200;6.080;2024-02-26T19:24:10;101501.16;;;4.01;100.00
76434;BME280;65265;53.200;6.080;2024-02-26T19:29:06;101468.78;;;3.97;100.00
76434;BME280;65265;53.200;6.080;2024-02-26T19:33:58;101510.16;;;4.31;100.00
76434;BME280;65265;53.200;6.080;2024-02-26T19:38:51;101514.22;;;4.29;100.00
76434;BME280;65265;53.200;6.080;2024-02-26T19:43:45;101508.84;;;4.36;100.00
76434;BME280;65265;53.200;6.080;2024-02-26T19:48:39;101530.22;;;4.39;100.00
76434;BME280;65265;53.200;6.080;2024-02-26T19:53:31;101527.88;;;4.42;100.00
76434;BME280;65265;53.200;6.080;2024-02-26T19:58:23;101533.94;;;4.44;100.00
76434;BME280;65265;53.200;6.080;2024-02-26T20:03:18;101544.06;;;4.44;100.00
76434;BME280;65265;53.200;6.080;2024-02-26T20:08:12;101537.25;;;4.43;100.00
76434;BME280;65265;53.200;6.080;2024-02-26T20:13:05;101541.53;;;4.44;100.00
76434;BME280;65265;53.200;6.080;2024-02-26T20:17:58;101547.28;;;4.42;100.00
76434;BME280;65265;53.200;6.080;2024-02-26T20:22:55;101548.81;;;4.40;100.00
76434;BME280;65265;53.200;6.080;2024-02-26T20:27:47;101557.72;;;4.35;100.00
76434;BME280;65265;53.200;6.080;2024-02-26T20:32:39;101563.31;;;4.31;100.00
76434;BME280;65265;53.200;6.080;2024-02-26T20:37:31;101555.88;;;4.11;100.00
76434;BME280;65265;53.200;6.080;2024-02-26T20:42:26;101590.69;;;4.25;100.00
76434;BME280;65265;53.200;6.080;2024-02-26T20:47:19;101590.75;;;4.15;100.00
76434;BME280;65265;53.200;6.080;2024-02-26T20:52:13;101584.75;;;4.03;100.00
76434;BME280;65265;53.200;6.080;2024-02-26T20:57:07;101596.38;;;4.11;100.00
76434;BME280;65265;53.200;6.080;2024-02-26T21:02:03;101614.63;;;4.07;100.00
76434;BME280;65265;53.200;6.080;2024-02-26T21:06:55;101603.28;;;3.92;100.00
76434;BME280;65265;53.200;6.080;2024-02-26T21:11:47;101619.47;;;3.94;100.00
76434;BME280;65265;53.200;6.080;2024-02-26T21:16:40;101618.53;;;3.82;100.00
76434;BME280;65265;53.200;6.080;2024-02-26T21:21:36;101630.94;;;3.79;100.00
76434;BME280;65265;53.200;6.080;2024-02-26T21:26:29;101640.69;;;3.74;100.00
76434;BME280;65265;53.200;6.080;2024-02-26T21:31:23;101652.34;;;3.72;100.00
76434;BME280;65265;53.200;6.080;2024-02-26T21:36:16;101658.31;;;3.73;100.00
76434;BME280;65265;53.200;6.080;2024-02-26T21:41:10;101660.97;;;3.64;100.00
76434;BME280;65265;53.200;6.080;2024-02-26T21:46:05;101662.13;;;3.58;100.00
76434;BME280;65265;53.200;6.080;2024-02-26T21:50:58;101676.03;;;3.63;100.00
76434;BME280;65265;53.200;6.080;2024-02-26T21:55:51;101676.41;;;3.67;100.00
76434;BME280;65265;53.200;6.080;2024-02-26T22:00:46;101676.41;;;3.67;100.00
76434;BME280;65265;53.200;6.080;2024-02-26T22:05:38;101684.00;;;3.67;100.00
76434;BME280;65265;53.200;6.080;2024-02-26T22:10:32;101680.44;;;3.65;100.00
76434;BME280;65265;53.200;6.080;2024-02-26T22:15:25;101687.53;;;3.59;100.00
76434;BME280;65265;53.200;6.080;2024-02-26T22:20:18;101691.84;;;3.60;100.00
76434;BME280;65265;53.200;6.080;2024-02-26T22:25:11;101690.69;;;3.57;100.00
76434;BME280;65265;53.200;6.080;2024-02-26T22:30:05;101701.59;;;3.46;100.00
76434;BME280;65265;53.200;6.080;2024-02-26T22:34:59;101701.13;;;3.40;100.00
76434;BME280;65265;53.200;6.080;2024-02-26T22:39:55;101695.94;;;3.38;100.00
76434;BME280;65265;53.200;6.080;2024-02-26T22:44:47;101693.16;;;3.35;100.00
76434;BME280;65265;53.200;6.080;2024-02-26T22:49:39;101700.22;;;3.29;100.00
76434;BME280;65265;53.200;6.080;2024-02-26T22:54:32;101701.63;;;3.26;100.00
76434;BME280;65265;53.200;6.080;2024-02-26T22:59:27;101704.91;;;3.25;100.00
76434;BME280;65265;53.200;6.080;2024-02-26T23:04:20;101701.28;;;3.11;100.00
76434;BME280;65265;53.200;6.080;2024-02-26T23:09:13;101703.03;;;3.12;100.00
76434;BME280;65265;53.200;6.080;2024-02-26T23:14:06;101708.47;;;3.17;100.00
76434;BME280;65265;53.200;6.080;2024-02-26T23:19:02;101718.81;;;3.10;100.00
76434;BME280;65265;53.200;6.080;2024-02-26T23:23:56;101725.66;;;3.11;100.00
76434;BME280;65265;53.200;6.080;2024-02-26T23:28:52;101739.03;;;3.10;100.00
76434;BME280;65265;53.200;6.080;2024-02-26T23:33:44;101725.88;;;2.94;100.00
76434;BME280;65265;53.200;6.080;2024-02-26T23:38:39;101730.56;;;2.79;100.00
76434;BME280;65265;53.200;6.080;2024-02-26T23:43:31;101742.53;;;2.82;100.00
76434;BME280;65265;53.200;6.080;2024-02-26T23:48:24;101730.66;;;2.81;100.00
76434;BME280;65265;53.200;6.080;2024-02-26T23:53:16;101731.56;;;2.81;100.00
76434;BME280;65265;53.200;6.080;2024-02-26T23:58:10;101709.72;;;2.62;100.00
